sensor_id;sensor_type;location;lat;lon;timestamp;P1;durP1;ratioP1;P2;durP2;ratioP2
36923;SDS011;22841;50.252;18.688;2024-03-25T00:00:38;10.77;;;6.50;;
36923;SDS011;22841;50.252;18.688;2024-03-25T00:03:04;16.83;;;7.60;;
36923;SDS011;22841;50.252;18.688;2024-03-25T00:05:31;12.18;;;7.35;;
36923;SDS011;22841;50.252;18.688;2024-03-25T00:07:57;11.80;;;6.53;;
36923;SDS011;22841;50.252;18.688;2024-03-25T00:10:24;9.32;;;5.10;;
36923;SDS011;22841;50.252;18.688;2024-03-25T00:12:50;10.98;;;5.60;;
36923;SDS011;22841;50.252;18.688;2024-03-25T00:15:20;12.63;;;6.32;;
36923;SDS011;22841;50.252;18.688;2024-03-25T00:17:46;8.52;;;5.25;;
36923;SDS011;22841;50.252;18.688;2024-03-25T00:20:13;11.18;;;5.60;;
36923;SDS011;22841;50.252;18.688;2024-03-25T00:22:40;9.85;;;5.03;;
36923;SDS011;22841;50.252;18.688;2024-03-25T00:25:07;11.23;;;5.47;;
36923;SDS011;22841;50.252;18.688;2024-03-25T00:27:34;9.57;;;5.25;;
36923;SDS011;22841;50.252;18.688;2024-03-25T00:30:00;10.75;;;5.30;;
36923;SDS011;22841;50.252;18.688;2024-03-25T00:32:26;13.00;;;6.13;;
36923;SDS011;22841;50.252;18.688;2024-03-25T00:34:52;6.55;;;4.90;;
36923;SDS011;22841;50.252;18.688;2024-03-25T00:37:18;9.80;;;5.22;;
36923;SDS011;22841;50.252;18.688;2024-03-25T00:39:44;11.48;;;5.85;;
36923;SDS011;22841;50.252;18.688;2024-03-25T00:42:11;8.40;;;5.20;;
36923;SDS011;22841;50.252;18.688;2024-03-25T00:48:19;10.85;;;6.35;;
36923;SDS011;22841;50.252;18.688;2024-03-25T00:50:45;11.48;;;6.35;;
36923;SDS011;22841;50.252;18.688;2024-03-25T00:53:11;15.38;;;6.03;;
36923;SDS011;22841;50.252;18.688;2024-03-25T00:55:37;10.27;;;5.47;;
36923;SDS011;22841;50.252;18.688;2024-03-25T00:58:03;11.95;;;5.60;;
36923;SDS011;22841;50.252;18.688;2024-03-25T01:00:29;11.35;;;4.95;;
36923;SDS011;22841;50.252;18.688;2024-03-25T01:02:56;10.23;;;5.38;;
36923;SDS011;22841;50.252;18.688;2024-03-25T01:05:22;8.93;;;4.97;;
36923;SDS011;22841;50.252;18.688;2024-03-25T01:08:12;9.02;;;5.10;;
36923;SDS011;22841;50.252;18.688;2024-03-25T01:11:04;8.63;;;5.27;;
36923;SDS011;22841;50.252;18.688;2024-03-25T01:13:30;7.85;;;5.00;;
36923;SDS011;22841;50.252;18.688;2024-03-25T01:15:56;10.15;;;4.88;;
36923;SDS011;22841;50.252;18.688;2024-03-25T01:18:22;8.55;;;5.30;;
36923;SDS011;22841;50.252;18.688;2024-03-25T01:20:48;8.77;;;5.43;;
36923;SDS011;22841;50.252;18.688;2024-03-25T01:23:15;10.90;;;4.53;;
36923;SDS011;22841;50.252;18.688;2024-03-25T01:25:41;7.40;;;4.88;;
36923;SDS011;22841;50.252;18.688;2024-03-25T01:28:07;11.48;;;5.15;;
36923;SDS011;22841;50.252;18.688;2024-03-25T01:30:33;8.77;;;5.43;;
36923;SDS011;22841;50.252;18.688;2024-03-25T01:33:04;9.07;;;5.20;;
36923;SDS011;22841;50.252;18.688;2024-03-25T01:35:31;8.13;;;5.45;;
36923;SDS011;22841;50.252;18.688;2024-03-25T01:37:57;7.63;;;4.65;;
36923;SDS011;22841;50.252;18.688;2024-03-25T01:40:23;8.23;;;5.35;;
36923;SDS011;22841;50.252;18.688;2024-03-25T01:42:59;16.90;;;5.50;;
36923;SDS011;22841;50.252;18.688;2024-03-25T01:45:27;10.38;;;5.38;;
36923;SDS011;22841;50.252;18.688;2024-03-25T01:54:48;10.50;;;5.90;;
36923;SDS011;22841;50.252;18.688;2024-03-25T01:57:15;10.15;;;6.03;;
36923;SDS011;22841;50.252;18.688;2024-03-25T01:59:41;8.98;;;6.03;;
36923;SDS011;22841;50.252;18.688;2024-03-25T02:02:08;9.82;;;5.75;;
36923;SDS011;22841;50.252;18.688;2024-03-25T02:04:37;15.23;;;6.80;;
36923;SDS011;22841;50.252;18.688;2024-03-25T02:07:05;12.20;;;6.75;;
36923;SDS011;22841;50.252;18.688;2024-03-25T02:09:59;10.85;;;6.50;;
36923;SDS011;22841;50.252;18.688;2024-03-25T02:12:51;10.05;;;6.75;;
36923;SDS011;22841;50.252;18.688;2024-03-25T02:19:11;11.07;;;6.18;;
36923;SDS011;22841;50.252;18.688;2024-03-25T02:22:04;11.63;;;6.35;;
36923;SDS011;22841;50.252;18.688;2024-03-25T02:24:56;25.40;;;7.47;;
36923;SDS011;22841;50.252;18.688;2024-03-25T02:27:24;16.90;;;6.35;;
36923;SDS011;22841;50.252;18.688;2024-03-25T02:29:50;12.40;;;7.05;;
36923;SDS011;22841;50.252;18.688;2024-03-25T02:32:16;12.80;;;7.05;;
36923;SDS011;22841;50.252;18.688;2024-03-25T02:34:45;11.20;;;6.85;;
36923;SDS011;22841;50.252;18.688;2024-03-25T02:37:17;10.10;;;5.85;;
36923;SDS011;22841;50.252;18.688;2024-03-25T02:39:44;9.40;;;6.45;;
36923;SDS011;22841;50.252;18.688;2024-03-25T02:42:10;11.23;;;7.15;;
36923;SDS011;22841;50.252;18.688;2024-03-25T02:44:36;12.88;;;6.35;;
36923;SDS011;22841;50.252;18.688;2024-03-25T02:50:20;10.75;;;6.47;;
36923;SDS011;22841;50.252;18.688;2024-03-25T02:52:46;10.77;;;6.13;;
36923;SDS011;22841;50.252;18.688;2024-03-25T02:55:12;13.52;;;6.47;;
36923;SDS011;22841;50.252;18.688;2024-03-25T02:57:38;13.80;;;6.22;;
36923;SDS011;22841;50.252;18.688;2024-03-25T03:00:04;11.90;;;6.60;;
36923;SDS011;22841;50.252;18.688;2024-03-25T03:02:31;10.50;;;5.45;;
36923;SDS011;22841;50.252;18.688;2024-03-25T03:04:57;10.82;;;6.03;;
36923;SDS011;22841;50.252;18.688;2024-03-25T03:07:23;11.15;;;7.35;;
36923;SDS011;22841;50.252;18.688;2024-03-25T03:09:49;10.15;;;5.78;;
36923;SDS011;22841;50.252;18.688;2024-03-25T03:12:15;8.68;;;6.00;;
36923;SDS011;22841;50.252;18.688;2024-03-25T03:14:41;9.65;;;6.18;;
36923;SDS011;22841;50.252;18.688;2024-03-25T03:17:07;10.75;;;5.88;;
36923;SDS011;22841;50.252;18.688;2024-03-25T03:19:33;10.77;;;6.60;;
36923;SDS011;22841;50.252;18.688;2024-03-25T03:21:59;10.82;;;6.07;;
36923;SDS011;22841;50.252;18.688;2024-03-25T03:24:25;9.77;;;6.00;;
36923;SDS011;22841;50.252;18.688;2024-03-25T03:26:51;7.65;;;5.93;;
36923;SDS011;22841;50.252;18.688;2024-03-25T03:29:17;9.88;;;5.28;;
36923;SDS011;22841;50.252;18.688;2024-03-25T03:31:43;8.73;;;5.55;;
36923;SDS011;22841;50.252;18.688;2024-03-25T03:34:09;8.65;;;5.85;;
36923;SDS011;22841;50.252;18.688;2024-03-25T03:36:36;7.40;;;5.30;;
36923;SDS011;22841;50.252;18.688;2024-03-25T03:39:02;6.47;;;4.63;;
36923;SDS011;22841;50.252;18.688;2024-03-25T03:41:29;8.98;;;5.82;;
36923;SDS011;22841;50.252;18.688;2024-03-25T03:43:55;8.07;;;5.35;;
36923;SDS011;22841;50.252;18.688;2024-03-25T03:46:21;8.35;;;5.45;;
36923;SDS011;22841;50.252;18.688;2024-03-25T03:48:47;7.45;;;5.05;;
36923;SDS011;22841;50.252;18.688;2024-03-25T03:51:13;13.75;;;4.97;;
36923;SDS011;22841;50.252;18.688;2024-03-25T03:53:44;7.15;;;5.07;;
36923;SDS011;22841;50.252;18.688;2024-03-25T03:56:10;13.90;;;5.47;;
36923;SDS011;22841;50.252;18.688;2024-03-25T03:58:37;11.75;;;5.97;;
36923;SDS011;22841;50.252;18.688;2024-03-25T04:01:03;7.90;;;5.30;;
36923;SDS011;22841;50.252;18.688;2024-03-25T04:03:30;8.32;;;5.57;;
36923;SDS011;22841;50.252;18.688;2024-03-25T04:05:56;8.02;;;5.57;;
36923;SDS011;22841;50.252;18.688;2024-03-25T04:08:22;7.75;;;5.18;;
36923;SDS011;22841;50.252;18.688;2024-03-25T04:20:45;10.18;;;5.35;;
36923;SDS011;22841;50.252;18.688;2024-03-25T04:23:11;11.38;;;5.43;;
36923;SDS011;22841;50.252;18.688;2024-03-25T04:25:37;11.32;;;6.82;;
36923;SDS011;22841;50.252;18.688;2024-03-25T04:28:06;13.02;;;6.10;;
36923;SDS011;22841;50.252;18.688;2024-03-25T04:33:54;9.43;;;6.38;;
36923;SDS011;22841;50.252;18.688;2024-03-25T04:36:20;9.88;;;7.38;;
36923;SDS011;22841;50.252;18.688;2024-03-25T04:38:46;12.07;;;6.43;;
36923;SDS011;22841;50.252;18.688;2024-03-25T04:41:12;13.88;;;7.22;;
36923;SDS011;22841;50.252;18.688;2024-03-25T04:43:39;10.43;;;7.15;;
36923;SDS011;22841;50.252;18.688;2024-03-25T04:46:05;12.20;;;7.28;;
36923;SDS011;22841;50.252;18.688;2024-03-25T04:48:31;17.48;;;8.35;;
36923;SDS011;22841;50.252;18.688;2024-03-25T04:50:57;16.98;;;8.82;;
36923;SDS011;22841;50.252;18.688;2024-03-25T05:08:11;17.33;;;10.40;;
36923;SDS011;22841;50.252;18.688;2024-03-25T05:10:37;14.73;;;10.10;;
36923;SDS011;22841;50.252;18.688;2024-03-25T05:13:03;18.17;;;10.05;;
36923;SDS011;22841;50.252;18.688;2024-03-25T05:15:29;15.32;;;9.80;;
36923;SDS011;22841;50.252;18.688;2024-03-25T05:17:55;15.35;;;9.93;;
36923;SDS011;22841;50.252;18.688;2024-03-25T05:20:21;16.77;;;9.95;;
36923;SDS011;22841;50.252;18.688;2024-03-25T05:22:48;17.63;;;10.27;;
36923;SDS011;22841;50.252;18.688;2024-03-25T05:25:14;17.27;;;10.05;;
36923;SDS011;22841;50.252;18.688;2024-03-25T05:27:40;20.40;;;9.82;;
36923;SDS011;22841;50.252;18.688;2024-03-25T05:30:06;22.00;;;11.73;;
36923;SDS011;22841;50.252;18.688;2024-03-25T05:32:33;23.73;;;12.23;;
36923;SDS011;22841;50.252;18.688;2024-03-25T05:34:59;21.95;;;11.25;;
36923;SDS011;22841;50.252;18.688;2024-03-25T05:37:25;19.13;;;11.18;;
36923;SDS011;22841;50.252;18.688;2024-03-25T05:39:51;19.38;;;9.40;;
36923;SDS011;22841;50.252;18.688;2024-03-25T05:42:17;15.80;;;9.30;;
36923;SDS011;22841;50.252;18.688;2024-03-25T05:44:44;18.08;;;8.93;;
36923;SDS011;22841;50.252;18.688;2024-03-25T05:47:11;16.85;;;9.38;;
36923;SDS011;22841;50.252;18.688;2024-03-25T05:49:37;11.82;;;8.20;;
36923;SDS011;22841;50.252;18.688;2024-03-25T05:52:04;16.35;;;9.30;;
36923;SDS011;22841;50.252;18.688;2024-03-25T05:54:30;13.07;;;8.65;;
36923;SDS011;22841;50.252;18.688;2024-03-25T05:56:56;13.77;;;7.70;;
36923;SDS011;22841;50.252;18.688;2024-03-25T05:59:48;15.38;;;8.30;;
36923;SDS011;22841;50.252;18.688;2024-03-25T06:02:14;14.40;;;8.38;;
36923;SDS011;22841;50.252;18.688;2024-03-25T06:04:40;17.13;;;8.43;;
36923;SDS011;22841;50.252;18.688;2024-03-25T06:07:06;15.95;;;8.15;;
36923;SDS011;22841;50.252;18.688;2024-03-25T06:09:32;12.63;;;8.10;;
36923;SDS011;22841;50.252;18.688;2024-03-25T06:11:58;12.60;;;7.30;;
36923;SDS011;22841;50.252;18.688;2024-03-25T06:14:24;12.43;;;8.23;;
36923;SDS011;22841;50.252;18.688;2024-03-25T06:16:50;14.15;;;8.13;;
36923;SDS011;22841;50.252;18.688;2024-03-25T06:19:16;13.30;;;7.90;;
36923;SDS011;22841;50.252;18.688;2024-03-25T06:21:42;12.98;;;7.90;;
36923;SDS011;22841;50.252;18.688;2024-03-25T06:24:08;14.32;;;7.95;;
36923;SDS011;22841;50.252;18.688;2024-03-25T06:26:34;13.10;;;7.97;;
36923;SDS011;22841;50.252;18.688;2024-03-25T06:29:00;13.05;;;8.15;;
36923;SDS011;22841;50.252;18.688;2024-03-25T06:31:28;11.95;;;7.43;;
36923;SDS011;22841;50.252;18.688;2024-03-25T06:34:12;11.55;;;7.15;;
36923;SDS011;22841;50.252;18.688;2024-03-25T06:36:47;9.57;;;6.55;;
36923;SDS011;22841;50.252;18.688;2024-03-25T06:39:14;9.88;;;6.57;;
36923;SDS011;22841;50.252;18.688;2024-03-25T06:41:40;8.63;;;5.97;;
36923;SDS011;22841;50.252;18.688;2024-03-25T06:44:07;8.68;;;5.82;;
36923;SDS011;22841;50.252;18.688;2024-03-25T06:46:33;19.27;;;6.68;;
36923;SDS011;22841;50.252;18.688;2024-03-25T06:48:59;6.72;;;5.20;;
36923;SDS011;22841;50.252;18.688;2024-03-25T06:51:25;8.25;;;5.30;;
36923;SDS011;22841;50.252;18.688;2024-03-25T06:53:52;9.18;;;6.10;;
36923;SDS011;22841;50.252;18.688;2024-03-25T06:56:18;8.70;;;5.80;;
36923;SDS011;22841;50.252;18.688;2024-03-25T06:58:44;8.05;;;5.22;;
36923;SDS011;22841;50.252;18.688;2024-03-25T07:01:11;9.18;;;5.03;;
36923;SDS011;22841;50.252;18.688;2024-03-25T07:03:40;7.13;;;5.15;;
36923;SDS011;22841;50.252;18.688;2024-03-25T07:06:06;7.90;;;4.82;;
36923;SDS011;22841;50.252;18.688;2024-03-25T07:08:32;10.15;;;6.05;;
36923;SDS011;22841;50.252;18.688;2024-03-25T07:10:58;12.10;;;6.43;;
36923;SDS011;22841;50.252;18.688;2024-03-25T07:13:25;8.82;;;5.10;;
36923;SDS011;22841;50.252;18.688;2024-03-25T07:15:51;8.90;;;5.43;;
36923;SDS011;22841;50.252;18.688;2024-03-25T07:18:17;13.35;;;5.53;;
36923;SDS011;22841;50.252;18.688;2024-03-25T07:20:43;7.70;;;5.97;;
36923;SDS011;22841;50.252;18.688;2024-03-25T07:23:10;13.35;;;5.65;;
36923;SDS011;22841;50.252;18.688;2024-03-25T07:25:36;12.70;;;6.78;;
36923;SDS011;22841;50.252;18.688;2024-03-25T07:28:03;15.32;;;8.10;;
36923;SDS011;22841;50.252;18.688;2024-03-25T07:30:29;11.63;;;6.85;;
36923;SDS011;22841;50.252;18.688;2024-03-25T07:32:56;23.15;;;11.07;;
36923;SDS011;22841;50.252;18.688;2024-03-25T07:35:23;16.88;;;10.43;;
36923;SDS011;22841;50.252;18.688;2024-03-25T07:37:49;12.82;;;8.18;;
36923;SDS011;22841;50.252;18.688;2024-03-25T07:40:21;18.42;;;11.27;;
36923;SDS011;22841;50.252;18.688;2024-03-25T07:42:48;14.18;;;9.43;;
36923;SDS011;22841;50.252;18.688;2024-03-25T07:45:14;13.23;;;8.55;;
36923;SDS011;22841;50.252;18.688;2024-03-25T07:47:41;13.02;;;7.93;;
36923;SDS011;22841;50.252;18.688;2024-03-25T07:50:07;15.60;;;10.07;;
36923;SDS011;22841;50.252;18.688;2024-03-25T07:52:33;11.60;;;7.45;;
36923;SDS011;22841;50.252;18.688;2024-03-25T07:55:08;23.92;;;15.88;;
36923;SDS011;22841;50.252;18.688;2024-03-25T07:57:34;19.23;;;12.00;;
36923;SDS011;22841;50.252;18.688;2024-03-25T08:00:01;16.10;;;10.57;;
36923;SDS011;22841;50.252;18.688;2024-03-25T08:02:27;17.08;;;9.10;;
36923;SDS011;22841;50.252;18.688;2024-03-25T08:04:53;13.88;;;8.68;;
36923;SDS011;22841;50.252;18.688;2024-03-25T08:07:19;11.40;;;7.85;;
36923;SDS011;22841;50.252;18.688;2024-03-25T08:09:45;13.63;;;8.90;;
36923;SDS011;22841;50.252;18.688;2024-03-25T08:12:36;10.63;;;5.90;;
36923;SDS011;22841;50.252;18.688;2024-03-25T08:15:27;12.95;;;6.57;;
36923;SDS011;22841;50.252;18.688;2024-03-25T08:18:18;9.60;;;5.72;;
36923;SDS011;22841;50.252;18.688;2024-03-25T08:20:44;8.60;;;5.85;;
36923;SDS011;22841;50.252;18.688;2024-03-25T08:23:10;7.63;;;5.15;;
36923;SDS011;22841;50.252;18.688;2024-03-25T08:25:36;7.63;;;4.63;;
36923;SDS011;22841;50.252;18.688;2024-03-25T08:28:02;8.52;;;5.43;;
36923;SDS011;22841;50.252;18.688;2024-03-25T08:30:28;11.27;;;6.82;;
36923;SDS011;22841;50.252;18.688;2024-03-25T08:32:55;11.95;;;8.82;;
36923;SDS011;22841;50.252;18.688;2024-03-25T08:35:21;11.40;;;7.07;;
36923;SDS011;22841;50.252;18.688;2024-03-25T08:37:47;9.25;;;6.22;;
36923;SDS011;22841;50.252;18.688;2024-03-25T08:40:13;7.35;;;5.60;;
36923;SDS011;22841;50.252;18.688;2024-03-25T08:42:39;7.25;;;5.72;;
36923;SDS011;22841;50.252;18.688;2024-03-25T08:45:06;6.88;;;4.90;;
36923;SDS011;22841;50.252;18.688;2024-03-25T08:47:32;7.20;;;4.88;;
36923;SDS011;22841;50.252;18.688;2024-03-25T08:49:58;6.22;;;4.63;;
36923;SDS011;22841;50.252;18.688;2024-03-25T08:52:24;7.00;;;5.32;;
36923;SDS011;22841;50.252;18.688;2024-03-25T08:54:50;11.40;;;7.05;;
36923;SDS011;22841;50.252;18.688;2024-03-25T08:57:16;6.07;;;5.03;;
36923;SDS011;22841;50.252;18.688;2024-03-25T08:59:42;4.72;;;3.75;;
36923;SDS011;22841;50.252;18.688;2024-03-25T09:02:08;3.75;;;3.17;;
36923;SDS011;22841;50.252;18.688;2024-03-25T09:04:34;5.32;;;3.75;;
36923;SDS011;22841;50.252;18.688;2024-03-25T09:07:00;4.00;;;3.13;;
36923;SDS011;22841;50.252;18.688;2024-03-25T09:09:26;5.75;;;3.70;;
36923;SDS011;22841;50.252;18.688;2024-03-25T09:12:11;7.68;;;6.05;;
36923;SDS011;22841;50.252;18.688;2024-03-25T09:14:37;6.72;;;4.90;;
36923;SDS011;22841;50.252;18.688;2024-03-25T09:17:04;3.60;;;2.85;;
36923;SDS011;22841;50.252;18.688;2024-03-25T09:19:30;3.97;;;2.80;;
36923;SDS011;22841;50.252;18.688;2024-03-25T09:21:56;5.35;;;3.85;;
36923;SDS011;22841;50.252;18.688;2024-03-25T09:24:22;5.07;;;3.20;;
36923;SDS011;22841;50.252;18.688;2024-03-25T09:26:51;4.28;;;2.92;;
36923;SDS011;22841;50.252;18.688;2024-03-25T09:29:17;3.50;;;2.95;;
36923;SDS011;22841;50.252;18.688;2024-03-25T09:31:43;3.85;;;3.33;;
36923;SDS011;22841;50.252;18.688;2024-03-25T09:34:10;4.00;;;3.13;;
36923;SDS011;22841;50.252;18.688;2024-03-25T09:39:07;4.95;;;2.67;;
36923;SDS011;22841;50.252;18.688;2024-03-25T09:41:36;3.95;;;2.63;;
36923;SDS011;22841;50.252;18.688;2024-03-25T09:44:05;3.67;;;2.67;;
36923;SDS011;22841;50.252;18.688;2024-03-25T09:46:31;3.88;;;2.78;;
36923;SDS011;22841;50.252;18.688;2024-03-25T09:48:59;3.28;;;2.60;;
36923;SDS011;22841;50.252;18.688;2024-03-25T09:51:25;3.85;;;3.28;;
36923;SDS011;22841;50.252;18.688;2024-03-25T09:53:51;5.05;;;3.45;;
36923;SDS011;22841;50.252;18.688;2024-03-25T09:56:17;4.05;;;3.50;;
36923;SDS011;22841;50.252;18.688;2024-03-25T09:58:43;4.93;;;2.72;;
36923;SDS011;22841;50.252;18.688;2024-03-25T10:01:10;4.18;;;2.42;;
36923;SDS011;22841;50.252;18.688;2024-03-25T10:03:36;6.10;;;3.05;;
36923;SDS011;22841;50.252;18.688;2024-03-25T10:06:02;6.22;;;3.13;;
36923;SDS011;22841;50.252;18.688;2024-03-25T10:08:28;3.47;;;3.17;;
36923;SDS011;22841;50.252;18.688;2024-03-25T10:17:31;8.80;;;3.60;;
36923;SDS011;22841;50.252;18.688;2024-03-25T10:19:57;6.32;;;3.83;;
36923;SDS011;22841;50.252;18.688;2024-03-25T10:22:23;2.65;;;1.88;;
36923;SDS011;22841;50.252;18.688;2024-03-25T10:24:49;3.67;;;1.48;;
36923;SDS011;22841;50.252;18.688;2024-03-25T10:27:20;1.55;;;1.45;;
36923;SDS011;22841;50.252;18.688;2024-03-25T10:29:54;2.73;;;2.50;;
36923;SDS011;22841;50.252;18.688;2024-03-25T10:32:23;3.55;;;2.40;;
36923;SDS011;22841;50.252;18.688;2024-03-25T10:34:50;3.53;;;2.17;;
36923;SDS011;22841;50.252;18.688;2024-03-25T10:37:17;7.05;;;2.25;;
36923;SDS011;22841;50.252;18.688;2024-03-25T10:39:49;4.32;;;2.38;;
36923;SDS011;22841;50.252;18.688;2024-03-25T10:42:18;3.22;;;2.20;;
36923;SDS011;22841;50.252;18.688;2024-03-25T10:44:45;3.38;;;2.03;;
36923;SDS011;22841;50.252;18.688;2024-03-25T10:47:17;13.80;;;3.20;;
36923;SDS011;22841;50.252;18.688;2024-03-25T10:54:56;1.83;;;1.27;;
36923;SDS011;22841;50.252;18.688;2024-03-25T10:57:23;1.80;;;1.40;;
36923;SDS011;22841;50.252;18.688;2024-03-25T10:59:50;4.72;;;2.10;;
36923;SDS011;22841;50.252;18.688;2024-03-25T11:02:16;8.73;;;2.38;;
36923;SDS011;22841;50.252;18.688;2024-03-25T11:04:44;3.30;;;2.63;;
36923;SDS011;22841;50.252;18.688;2024-03-25T11:07:11;3.30;;;2.78;;
36923;SDS011;22841;50.252;18.688;2024-03-25T11:09:39;6.05;;;3.20;;
36923;SDS011;22841;50.252;18.688;2024-03-25T11:12:06;2.95;;;2.70;;
36923;SDS011;22841;50.252;18.688;2024-03-25T11:14:33;4.72;;;3.13;;
36923;SDS011;22841;50.252;18.688;2024-03-25T11:17:00;6.82;;;3.00;;
36923;SDS011;22841;50.252;18.688;2024-03-25T11:19:27;4.40;;;3.20;;
36923;SDS011;22841;50.252;18.688;2024-03-25T11:21:54;10.45;;;5.95;;
36923;SDS011;22841;50.252;18.688;2024-03-25T11:24:31;8.20;;;5.03;;
36923;SDS011;22841;50.252;18.688;2024-03-25T11:26:58;6.40;;;3.80;;
36923;SDS011;22841;50.252;18.688;2024-03-25T11:29:26;14.65;;;7.20;;
36923;SDS011;22841;50.252;18.688;2024-03-25T11:31:52;17.13;;;6.90;;
36923;SDS011;22841;50.252;18.688;2024-03-25T11:34:19;8.18;;;4.43;;
36923;SDS011;22841;50.252;18.688;2024-03-25T11:36:46;16.40;;;7.55;;
36923;SDS011;22841;50.252;18.688;2024-03-25T11:39:14;6.03;;;3.95;;
36923;SDS011;22841;50.252;18.688;2024-03-25T11:41:40;20.77;;;10.40;;
36923;SDS011;22841;50.252;18.688;2024-03-25T11:44:10;10.93;;;5.85;;
36923;SDS011;22841;50.252;18.688;2024-03-25T11:46:38;11.15;;;6.43;;
36923;SDS011;22841;50.252;18.688;2024-03-25T11:49:11;4.72;;;2.53;;
36923;SDS011;22841;50.252;18.688;2024-03-25T11:51:39;2.72;;;1.88;;
36923;SDS011;22841;50.252;18.688;2024-03-25T11:54:10;2.03;;;1.70;;
36923;SDS011;22841;50.252;18.688;2024-03-25T11:56:36;3.22;;;2.50;;
36923;SDS011;22841;50.252;18.688;2024-03-25T11:59:03;4.15;;;2.47;;
36923;SDS011;22841;50.252;18.688;2024-03-25T12:01:29;7.57;;;3.80;;
36923;SDS011;22841;50.252;18.688;2024-03-25T12:03:56;3.38;;;2.45;;
36923;SDS011;22841;50.252;18.688;2024-03-25T12:06:22;4.22;;;2.80;;
36923;SDS011;22841;50.252;18.688;2024-03-25T12:08:49;3.13;;;2.55;;
36923;SDS011;22841;50.252;18.688;2024-03-25T12:11:33;3.17;;;2.58;;
36923;SDS011;22841;50.252;18.688;2024-03-25T12:14:00;3.85;;;3.15;;
36923;SDS011;22841;50.252;18.688;2024-03-25T12:16:27;4.43;;;3.47;;
36923;SDS011;22841;50.252;18.688;2024-03-25T12:18:53;6.07;;;4.15;;
36923;SDS011;22841;50.252;18.688;2024-03-25T12:21:19;4.25;;;3.38;;
36923;SDS011;22841;50.252;18.688;2024-03-25T12:23:47;3.67;;;3.13;;
36923;SDS011;22841;50.252;18.688;2024-03-25T12:26:13;4.22;;;2.78;;
36923;SDS011;22841;50.252;18.688;2024-03-25T12:28:39;6.55;;;3.60;;
36923;SDS011;22841;50.252;18.688;2024-03-25T12:31:09;6.95;;;4.47;;
36923;SDS011;22841;50.252;18.688;2024-03-25T12:33:41;6.32;;;2.30;;
36923;SDS011;22841;50.252;18.688;2024-03-25T12:36:07;3.03;;;2.42;;
36923;SDS011;22841;50.252;18.688;2024-03-25T12:38:34;5.75;;;2.47;;
36923;SDS011;22841;50.252;18.688;2024-03-25T12:41:03;5.20;;;3.05;;
36923;SDS011;22841;50.252;18.688;2024-03-25T12:43:34;5.03;;;3.03;;
36923;SDS011;22841;50.252;18.688;2024-03-25T12:46:01;5.65;;;2.90;;
36923;SDS011;22841;50.252;18.688;2024-03-25T12:48:53;3.13;;;2.72;;
36923;SDS011;22841;50.252;18.688;2024-03-25T12:51:44;3.03;;;2.00;;
36923;SDS011;22841;50.252;18.688;2024-03-25T12:54:35;3.75;;;2.63;;
36923;SDS011;22841;50.252;18.688;2024-03-25T12:57:03;8.77;;;2.15;;
36923;SDS011;22841;50.252;18.688;2024-03-25T12:59:29;4.97;;;2.38;;
36923;SDS011;22841;50.252;18.688;2024-03-25T13:01:55;5.03;;;1.98;;
36923;SDS011;22841;50.252;18.688;2024-03-25T13:04:21;4.28;;;2.75;;
36923;SDS011;22841;50.252;18.688;2024-03-25T13:06:47;5.15;;;2.50;;
36923;SDS011;22841;50.252;18.688;2024-03-25T13:09:13;3.58;;;2.40;;
36923;SDS011;22841;50.252;18.688;2024-03-25T13:11:39;3.10;;;2.33;;
36923;SDS011;22841;50.252;18.688;2024-03-25T13:14:06;4.15;;;2.53;;
36923;SDS011;22841;50.252;18.688;2024-03-25T13:16:33;2.80;;;2.40;;
36923;SDS011;22841;50.252;18.688;2024-03-25T13:18:59;4.40;;;2.13;;
36923;SDS011;22841;50.252;18.688;2024-03-25T13:21:25;4.13;;;2.47;;
36923;SDS011;22841;50.252;18.688;2024-03-25T13:23:51;4.53;;;2.20;;
36923;SDS011;22841;50.252;18.688;2024-03-25T13:26:18;4.78;;;3.35;;
36923;SDS011;22841;50.252;18.688;2024-03-25T13:28:44;3.92;;;2.50;;
36923;SDS011;22841;50.252;18.688;2024-03-25T13:34:03;4.63;;;3.08;;
36923;SDS011;22841;50.252;18.688;2024-03-25T13:36:29;7.53;;;3.75;;
36923;SDS011;22841;50.252;18.688;2024-03-25T13:38:56;3.28;;;2.67;;
36923;SDS011;22841;50.252;18.688;2024-03-25T13:41:22;5.30;;;3.63;;
36923;SDS011;22841;50.252;18.688;2024-03-25T13:43:50;4.40;;;2.70;;
36923;SDS011;22841;50.252;18.688;2024-03-25T13:46:16;3.80;;;2.65;;
36923;SDS011;22841;50.252;18.688;2024-03-25T13:48:42;3.20;;;2.85;;
36923;SDS011;22841;50.252;18.688;2024-03-25T13:51:08;4.95;;;2.95;;
36923;SDS011;22841;50.252;18.688;2024-03-25T13:53:34;5.82;;;2.95;;
36923;SDS011;22841;50.252;18.688;2024-03-25T13:56:00;2.85;;;2.13;;
36923;SDS011;22841;50.252;18.688;2024-03-25T13:58:28;3.20;;;1.83;;
36923;SDS011;22841;50.252;18.688;2024-03-25T14:00:54;4.47;;;2.78;;
36923;SDS011;22841;50.252;18.688;2024-03-25T14:03:21;5.93;;;3.25;;
36923;SDS011;22841;50.252;18.688;2024-03-25T14:05:47;5.07;;;2.47;;
36923;SDS011;22841;50.252;18.688;2024-03-25T14:08:13;2.45;;;2.22;;
36923;SDS011;22841;50.252;18.688;2024-03-25T14:10:39;4.15;;;2.42;;
36923;SDS011;22841;50.252;18.688;2024-03-25T14:13:05;3.78;;;2.40;;
36923;SDS011;22841;50.252;18.688;2024-03-25T14:15:31;10.43;;;4.25;;
36923;SDS011;22841;50.252;18.688;2024-03-25T14:17:57;5.30;;;3.85;;
36923;SDS011;22841;50.252;18.688;2024-03-25T14:20:23;6.25;;;2.90;;
36923;SDS011;22841;50.252;18.688;2024-03-25T14:22:49;7.05;;;4.03;;
36923;SDS011;22841;50.252;18.688;2024-03-25T14:25:15;8.05;;;5.72;;
36923;SDS011;22841;50.252;18.688;2024-03-25T14:27:41;15.32;;;6.60;;
36923;SDS011;22841;50.252;18.688;2024-03-25T14:30:08;6.55;;;4.55;;
36923;SDS011;22841;50.252;18.688;2024-03-25T14:32:37;12.13;;;5.00;;
36923;SDS011;22841;50.252;18.688;2024-03-25T14:35:04;15.05;;;4.82;;
36923;SDS011;22841;50.252;18.688;2024-03-25T14:37:34;10.75;;;4.82;;
36923;SDS011;22841;50.252;18.688;2024-03-25T14:40:00;7.50;;;4.30;;
36923;SDS011;22841;50.252;18.688;2024-03-25T14:42:26;9.10;;;3.42;;
36923;SDS011;22841;50.252;18.688;2024-03-25T14:44:52;4.93;;;3.13;;
36923;SDS011;22841;50.252;18.688;2024-03-25T14:47:18;5.30;;;3.50;;
36923;SDS011;22841;50.252;18.688;2024-03-25T14:49:45;3.63;;;2.70;;
36923;SDS011;22841;50.252;18.688;2024-03-25T14:52:11;4.95;;;3.20;;
36923;SDS011;22841;50.252;18.688;2024-03-25T14:54:37;4.88;;;3.80;;
36923;SDS011;22841;50.252;18.688;2024-03-25T14:57:03;7.43;;;3.90;;
36923;SDS011;22841;50.252;18.688;2024-03-25T14:59:29;4.93;;;3.40;;
36923;SDS011;22841;50.252;18.688;2024-03-25T15:01:59;8.00;;;3.67;;
36923;SDS011;22841;50.252;18.688;2024-03-25T15:04:27;8.25;;;3.30;;
36923;SDS011;22841;50.252;18.688;2024-03-25T15:06:53;4.75;;;2.65;;
36923;SDS011;22841;50.252;18.688;2024-03-25T15:09:19;4.55;;;2.88;;
36923;SDS011;22841;50.252;18.688;2024-03-25T15:11:45;4.78;;;3.35;;
36923;SDS011;22841;50.252;18.688;2024-03-25T15:14:11;4.03;;;2.50;;
36923;SDS011;22841;50.252;18.688;2024-03-25T15:16:37;4.75;;;2.92;;
36923;SDS011;22841;50.252;18.688;2024-03-25T15:19:03;5.28;;;2.90;;
36923;SDS011;22841;50.252;18.688;2024-03-25T15:21:29;6.63;;;3.22;;
36923;SDS011;22841;50.252;18.688;2024-03-25T15:23:55;4.75;;;3.20;;
36923;SDS011;22841;50.252;18.688;2024-03-25T15:26:23;5.57;;;2.88;;
36923;SDS011;22841;50.252;18.688;2024-03-25T15:28:49;3.97;;;3.38;;
36923;SDS011;22841;50.252;18.688;2024-03-25T15:31:15;5.75;;;3.80;;
36923;SDS011;22841;50.252;18.688;2024-03-25T15:33:41;6.28;;;3.90;;